createdAt,value
2022-12-01T00:00:16.243Z,3.96
2022-12-01T00:03:19.195Z,4.04
2022-12-01T00:06:22.071Z,3.87
2022-12-01T00:09:43.438Z,3.70
2022-12-01T00:12:46.152Z,3.55
2022-12-01T00:15:49.259Z,3.41
2022-12-01T00:18:53.699Z,3.27
2022-12-01T00:21:57.120Z,3.34
2022-12-01T00:24:59.652Z,3.57
2022-12-01T00:28:02.593Z,3.35
2022-12-01T00:31:09.232Z,3.28
2022-12-01T00:34:22.716Z,3.22
2022-12-01T00:37:25.563Z,3.22
2022-12-01T00:40:28.407Z,3.09
2022-12-01T00:43:31.243Z,3.03
2022-12-01T00:46:34.302Z,3.13
2022-12-01T00:49:37.024Z,2.98
2022-12-01T00:52:39.883Z,2.70
2022-12-01T00:55:42.473Z,2.82
2022-12-01T00:58:45.682Z,2.79
2022-12-01T01:01:48.536Z,2.82
2022-12-01T01:04:53.798Z,2.68
2022-12-01T01:07:56.376Z,2.80
2022-12-01T01:11:00.639Z,2.72
2022-12-01T01:14:03.721Z,2.66
2022-12-01T01:17:06.837Z,2.66
2022-12-01T01:20:10.195Z,2.57
2022-12-01T01:23:14.191Z,2.48
2022-12-01T01:26:22.738Z,2.42
2022-12-01T01:29:25.537Z,2.49
2022-12-01T01:32:28.228Z,2.55
2022-12-01T01:35:31.314Z,2.40
2022-12-01T01:38:35.218Z,2.42
2022-12-01T01:41:38.025Z,2.40
2022-12-01T01:44:57.913Z,2.21
2022-12-01T01:48:00.996Z,1.99
2022-12-01T01:51:04.586Z,2.11
2022-12-01T01:54:15.711Z,2.10
2022-12-01T01:57:25.920Z,2.11
2022-12-01T02:00:29.447Z,1.88
2022-12-01T02:03:37.194Z,1.81
2022-12-01T02:06:39.819Z,1.97
2022-12-01T02:09:42.828Z,1.97
2022-12-01T02:12:51.054Z,1.95
2022-12-01T02:16:21.918Z,1.90
2022-12-01T02:19:43.362Z,1.85
2022-12-01T02:22:50.719Z,1.78
2022-12-01T02:26:08.291Z,1.76
2022-12-01T02:29:38.348Z,1.71
2022-12-01T02:33:12.013Z,1.65
2022-12-01T02:36:46.337Z,1.57
2022-12-01T02:40:18.266Z,1.61
2022-12-01T02:43:31.747Z,1.48
2022-12-01T02:46:40.259Z,1.62
2022-12-01T02:49:50.270Z,1.64
2022-12-01T02:52:55.112Z,1.59
2022-12-01T02:55:59.270Z,1.54
2022-12-01T02:59:05.842Z,1.48
2022-12-01T03:02:17.311Z,1.48
2022-12-01T03:05:26.576Z,1.46
2022-12-01T03:08:46.051Z,1.27
2022-12-01T03:12:10.583Z,1.19
2022-12-01T03:15:45.863Z,1.21
2022-12-01T03:18:59.390Z,1.31
2022-12-01T03:22:10.033Z,1.41
2022-12-01T03:25:14.786Z,1.38
2022-12-01T03:28:22.865Z,1.52
2022-12-01T03:31:35.005Z,1.44
2022-12-01T03:34:50.264Z,1.52
2022-12-01T03:38:17.204Z,1.64
2022-12-01T03:41:30.494Z,1.66
2022-12-01T03:44:43.332Z,1.54
2022-12-01T03:47:46.792Z,1.52
2022-12-01T03:51:27.012Z,1.53
2022-12-01T03:54:54.729Z,1.48
2022-12-01T03:58:03.235Z,1.51
2022-12-01T04:01:08.115Z,1.80
2022-12-01T04:04:13.359Z,1.70
2022-12-01T04:07:16.036Z,1.71
2022-12-01T04:10:19.074Z,1.61
2022-12-01T04:13:25.797Z,1.45
2022-12-01T04:16:30.682Z,1.39
2022-12-01T04:19:33.359Z,1.35
2022-12-01T04:22:39.082Z,1.27
2022-12-01T04:25:41.604Z,1.15
2022-12-01T04:28:44.660Z,0.99
2022-12-01T04:31:47.251Z,1.04
2022-12-01T04:34:50.237Z,1.15
2022-12-01T04:37:52.802Z,0.96
2022-12-01T04:40:55.618Z,1.05
2022-12-01T04:43:58.387Z,0.93
2022-12-01T04:47:01.289Z,0.87
2022-12-01T04:50:04.327Z,0.72
2022-12-01T04:53:07.284Z,0.68
2022-12-01T04:56:10.038Z,0.84
2022-12-01T04:59:13.221Z,0.84
2022-12-01T05:02:15.900Z,0.75
2022-12-01T05:05:22.595Z,0.70
2022-12-01T05:08:25.336Z,0.54
2022-12-01T05:11:29.719Z,0.47
2022-12-01T05:14:33.237Z,0.55
2022-12-01T05:17:37.269Z,0.45
2022-12-01T05:20:57.854Z,0.45
2022-12-01T05:24:00.639Z,0.54
2022-12-01T05:27:03.229Z,0.61
2022-12-01T05:30:07.212Z,0.56
2022-12-01T05:33:09.747Z,0.56
2022-12-01T05:36:12.709Z,0.46
2022-12-01T05:39:15.698Z,1.43
2022-12-01T05:42:18.461Z,0.87
2022-12-01T05:45:21.057Z,0.66
2022-12-01T05:48:24.872Z,0.39
2022-12-01T05:51:30.650Z,0.58
2022-12-01T05:54:33.556Z,0.55
2022-12-01T05:57:36.287Z,0.35
2022-12-01T06:00:45.689Z,0.42
2022-12-01T06:03:49.108Z,0.46
2022-12-01T06:06:51.821Z,0.47
2022-12-01T06:09:56.051Z,0.43
2022-12-01T06:12:58.570Z,0.46
2022-12-01T06:16:04.152Z,0.37
2022-12-01T06:19:07.039Z,0.38
2022-12-01T06:22:11.046Z,0.48
2022-12-01T06:25:13.793Z,0.59
2022-12-01T06:28:17.559Z,0.59
2022-12-01T06:31:20.226Z,0.71
2022-12-01T06:34:23.488Z,0.61
2022-12-01T06:37:27.602Z,0.68
2022-12-01T06:40:30.631Z,0.78
2022-12-01T06:43:36.669Z,0.74
2022-12-01T06:46:39.834Z,0.93
2022-12-01T06:49:42.483Z,0.95
2022-12-01T06:52:45.633Z,1.31
2022-12-01T06:55:48.340Z,1.42
2022-12-01T06:58:53.200Z,1.62
2022-12-01T07:01:57.934Z,2.03
2022-12-01T07:05:01.042Z,1.95
2022-12-01T07:08:03.701Z,2.18
2022-12-01T07:11:12.747Z,2.38
2022-12-01T07:14:23.868Z,2.48
2022-12-01T07:17:27.425Z,2.64
2022-12-01T07:20:30.209Z,2.93
2022-12-01T07:23:33.720Z,3.19
2022-12-01T07:26:36.310Z,3.48
2022-12-01T07:29:39.566Z,3.70
2022-12-01T07:32:42.227Z,3.81
2022-12-01T07:35:45.144Z,3.98
2022-12-01T07:38:48.117Z,4.51
2022-12-01T07:41:51.180Z,4.67
2022-12-01T07:44:53.750Z,4.73
2022-12-01T07:47:56.723Z,4.90
2022-12-01T07:50:59.481Z,5.08
2022-12-01T07:54:05.346Z,5.36
2022-12-01T07:57:08.062Z,5.27
2022-12-01T08:00:12.251Z,5.59
2022-12-01T08:03:18.398Z,5.99
2022-12-01T08:06:22.561Z,6.04
2022-12-01T08:09:25.960Z,6.03
2022-12-01T08:12:28.742Z,5.94
2022-12-01T08:15:31.961Z,6.11
2022-12-01T08:18:39.809Z,6.58
2022-12-01T08:21:45.230Z,6.81
2022-12-01T08:24:48.281Z,6.36
2022-12-01T08:27:52.725Z,6.98
2022-12-01T08:30:56.108Z,6.93
2022-12-01T08:33:59.198Z,7.31
2022-12-01T08:37:02.074Z,7.45
2022-12-01T08:40:05.876Z,7.42
2022-12-01T08:43:12.346Z,8.10
2022-12-01T08:46:22.544Z,8.55
2022-12-01T08:49:26.396Z,8.92
2022-12-01T08:52:33.004Z,8.67
2022-12-01T08:55:35.677Z,8.98
2022-12-01T08:58:38.571Z,8.25
2022-12-01T09:01:52.570Z,8.88
2022-12-01T09:04:55.972Z,8.55
2022-12-01T09:08:17.384Z,9.34
2022-12-01T09:11:20.252Z,9.42
2022-12-01T09:14:23.960Z,9.33
2022-12-01T09:17:28.325Z,9.59
2022-12-01T09:20:31.026Z,8.84
2022-12-01T09:23:34.087Z,9.82
2022-12-01T09:26:36.664Z,10.34
2022-12-01T09:29:40.171Z,10.01
2022-12-01T09:32:43.083Z,10.11
2022-12-01T09:35:45.996Z,10.91
2022-12-01T09:38:48.691Z,9.99
2022-12-01T09:41:58.036Z,10.76
2022-12-01T09:45:02.838Z,10.14
2022-12-01T09:48:08.043Z,9.61
2022-12-01T09:51:16.113Z,10.04
2022-12-01T09:54:19.497Z,9.90
2022-12-01T09:57:35.508Z,10.53
2022-12-01T10:00:43.669Z,8.93
2022-12-01T10:03:53.161Z,9.81
2022-12-01T10:07:19.501Z,10.21
2022-12-01T10:10:36.780Z,10.27
2022-12-01T10:13:39.519Z,10.01
2022-12-01T10:16:51.356Z,10.49
2022-12-01T10:19:57.004Z,10.64
2022-12-01T10:23:09.258Z,11.48
2022-12-01T10:26:18.778Z,10.80
2022-12-01T10:29:47.382Z,11.33
2022-12-01T10:32:52.776Z,11.25
2022-12-01T10:35:57.009Z,10.93
2022-12-01T10:39:02.002Z,12.34
2022-12-01T10:42:19.542Z,11.93
2022-12-01T10:45:26.513Z,10.77
2022-12-01T10:48:29.544Z,11.25
2022-12-01T10:52:06.239Z,11.79
2022-12-01T10:55:27.766Z,12.24
2022-12-01T10:58:34.200Z,13.57
2022-12-01T11:01:38.209Z,13.33
2022-12-01T11:04:46.354Z,12.98
2022-12-01T11:07:49.915Z,12.03
2022-12-01T11:10:52.649Z,13.52
2022-12-01T11:13:57.437Z,13.00
2022-12-01T11:17:26.339Z,14.10
2022-12-01T11:20:38.071Z,14.10
2022-12-01T11:23:52.412Z,12.46
2022-12-01T11:26:59.734Z,12.14
2022-12-01T11:30:08.489Z,12.58
2022-12-01T11:33:15.275Z,12.90
2022-12-01T11:36:34.827Z,13.21
2022-12-01T11:39:39.573Z,12.82
2022-12-01T11:42:54.160Z,12.60
2022-12-01T11:45:59.829Z,12.04
2022-12-01T11:49:03.082Z,12.30
2022-12-01T11:52:34.751Z,11.30
2022-12-01T11:55:37.469Z,10.94
2022-12-01T11:58:42.939Z,12.03
2022-12-01T12:02:15.891Z,12.33
2022-12-01T12:05:45.503Z,11.38
2022-12-01T12:09:24.244Z,10.29
2022-12-01T12:12:44.577Z,10.26
2022-12-01T12:15:50.500Z,9.53
2022-12-01T12:19:25.388Z,10.40
2022-12-01T12:23:02.658Z,10.78
2022-12-01T12:26:28.409Z,9.87
2022-12-01T12:30:18.377Z,11.25
2022-12-01T12:33:45.177Z,9.52
2022-12-01T12:37:08.190Z,9.96
2022-12-01T12:40:39.780Z,9.58
2022-12-01T12:44:03.400Z,9.05
2022-12-01T12:47:35.982Z,9.07
2022-12-01T12:50:44.929Z,9.13
2022-12-01T12:53:54.309Z,8.61
2022-12-01T12:57:20.898Z,8.54
2022-12-01T13:00:28.953Z,8.47
2022-12-01T13:03:37.529Z,8.43
2022-12-01T13:06:46.973Z,8.32
2022-12-01T13:09:57.484Z,7.96
2022-12-01T13:13:42.054Z,8.19
2022-12-01T13:16:51.988Z,8.09
2022-12-01T13:19:54.801Z,8.11
2022-12-01T13:22:59.700Z,8.10
2022-12-01T13:26:08.135Z,8.12
2022-12-01T13:29:17.829Z,8.15
2022-12-01T13:32:37.389Z,8.31
2022-12-01T13:35:40.255Z,8.10
2022-12-01T13:38:43.936Z,8.10
2022-12-01T13:42:07.306Z,7.90
2022-12-01T13:45:20.063Z,7.40
2022-12-01T13:48:52.967Z,7.25
2022-12-01T13:52:34.679Z,7.31
2022-12-01T13:55:56.987Z,6.99
2022-12-01T13:59:00.350Z,7.13
2022-12-01T14:02:18.462Z,7.26
2022-12-01T14:05:40.288Z,7.16
2022-12-01T14:08:48.328Z,6.87
2022-12-01T14:12:01.342Z,7.00
2022-12-01T14:15:33.422Z,6.67
2022-12-01T14:18:42.916Z,6.96
2022-12-01T14:21:49.729Z,7.05
2022-12-01T14:24:53.238Z,6.60
2022-12-01T14:28:01.293Z,6.85
2022-12-01T14:31:05.955Z,6.81
2022-12-01T14:34:17.333Z,6.70
2022-12-01T14:37:27.435Z,6.77
2022-12-01T14:40:30.494Z,6.80
2022-12-01T14:43:53.523Z,6.72
2022-12-01T14:47:10.448Z,6.72
2022-12-01T14:50:16.658Z,6.58
2022-12-01T14:53:22.742Z,6.63
2022-12-01T14:56:26.724Z,6.50
2022-12-01T14:59:30.057Z,6.76
2022-12-01T15:02:33.380Z,6.75
2022-12-01T15:05:43.805Z,6.96
2022-12-01T15:09:10.525Z,6.88
2022-12-01T15:12:26.174Z,6.93
2022-12-01T15:15:32.199Z,6.94
2022-12-01T15:18:39.357Z,6.68
2022-12-01T15:21:42.579Z,6.75
2022-12-01T15:24:46.029Z,6.75
2022-12-01T15:28:11.226Z,6.54
2022-12-01T15:31:14.331Z,6.60
2022-12-01T15:34:28.687Z,6.38
2022-12-01T15:37:42.610Z,6.31
2022-12-01T15:41:27.507Z,6.24
2022-12-01T15:44:35.799Z,6.13
2022-12-01T15:47:43.493Z,6.02
2022-12-01T15:51:02.225Z,6.06
2022-12-01T15:54:05.476Z,6.03
2022-12-01T15:57:08.300Z,6.05
2022-12-01T16:00:22.666Z,5.95
2022-12-01T16:03:25.989Z,5.98
2022-12-01T16:06:40.495Z,6.02
2022-12-01T16:10:04.322Z,5.91
2022-12-01T16:13:34.947Z,5.93
2022-12-01T16:16:44.159Z,5.94
2022-12-01T16:19:47.425Z,5.89
2022-12-01T16:23:05.460Z,5.73
2022-12-01T16:26:09.005Z,5.75
2022-12-01T16:29:20.990Z,5.68
2022-12-01T16:32:40.856Z,5.61
2022-12-01T16:35:44.132Z,5.60
2022-12-01T16:38:46.983Z,5.57
2022-12-01T16:41:50.327Z,5.52
2022-12-01T16:44:53.489Z,5.49
2022-12-01T16:47:56.673Z,5.45
2022-12-01T16:51:03.498Z,5.48
2022-12-01T16:54:06.854Z,5.28
2022-12-01T16:57:09.592Z,5.16
2022-12-01T17:00:16.365Z,5.25
2022-12-01T17:03:26.653Z,5.33
2022-12-01T17:06:29.604Z,5.17
2022-12-01T17:09:32.826Z,5.27
2022-12-01T17:12:39.761Z,5.03
2022-12-01T17:15:47.033Z,5.16
2022-12-01T17:18:50.042Z,5.07
2022-12-01T17:21:53.046Z,5.05
2022-12-01T17:24:56.072Z,5.01
2022-12-01T17:27:59.407Z,4.87
2022-12-01T17:31:04.554Z,4.82
2022-12-01T17:34:10.379Z,4.84
2022-12-01T17:37:19.107Z,4.74
2022-12-01T17:40:24.170Z,4.64
2022-12-01T17:43:27.721Z,4.53
2022-12-01T17:46:30.749Z,4.52
2022-12-01T17:49:35.702Z,4.53
2022-12-01T17:52:38.483Z,4.19
2022-12-01T17:55:41.660Z,4.46
2022-12-01T17:58:45.091Z,4.26
2022-12-01T18:01:49.269Z,4.23
2022-12-01T18:04:52.821Z,4.16
2022-12-01T18:07:55.800Z,4.39
2022-12-01T18:11:03.801Z,4.30
2022-12-01T18:14:06.498Z,4.09
2022-12-01T18:17:09.762Z,3.86
2022-12-01T18:20:13.135Z,4.09
2022-12-01T18:23:16.020Z,3.96
2022-12-01T18:26:20.568Z,4.07
2022-12-01T18:29:26.225Z,4.23
2022-12-01T18:32:29.232Z,4.27
2022-12-01T18:35:32.388Z,4.20
2022-12-01T18:38:35.986Z,4.26
2022-12-01T18:41:42.543Z,4.31
2022-12-01T18:44:50.247Z,4.23
2022-12-01T18:47:54.651Z,4.27
2022-12-01T18:51:02.921Z,4.16
2022-12-01T18:54:07.526Z,4.15
2022-12-01T18:57:11.907Z,4.18
2022-12-01T19:00:16.495Z,4.21
2022-12-01T19:03:20.342Z,4.07
2022-12-01T19:06:27.607Z,4.09
2022-12-01T19:09:30.730Z,4.20
2022-12-01T19:12:40.848Z,4.41
2022-12-01T19:15:43.717Z,4.44
2022-12-01T19:18:47.842Z,4.08
2022-12-01T19:21:51.127Z,3.94
2022-12-01T19:24:56.862Z,3.82
2022-12-01T19:27:59.834Z,3.77
2022-12-01T19:31:07.864Z,3.83
2022-12-01T19:34:11.184Z,3.97
2022-12-01T19:37:14.575Z,3.85
2022-12-01T19:40:18.997Z,3.86
2022-12-01T19:43:22.317Z,3.74
2022-12-01T19:46:27.556Z,3.72
2022-12-01T19:49:31.345Z,3.79
2022-12-01T19:52:36.057Z,3.73
2022-12-01T19:55:39.283Z,3.60
2022-12-01T19:58:43.815Z,3.65
2022-12-01T20:01:47.196Z,3.62
2022-12-01T20:04:51.642Z,3.58
2022-12-01T20:07:54.859Z,3.51
2022-12-01T20:11:01.448Z,3.61
2022-12-01T20:14:05.717Z,3.41
2022-12-01T20:17:12.898Z,3.35
2022-12-01T20:20:18.559Z,3.27
2022-12-01T20:23:22.223Z,3.29
2022-12-01T20:26:31.571Z,3.35
2022-12-01T20:29:34.802Z,3.06
2022-12-01T20:32:37.930Z,3.35
2022-12-01T20:35:40.892Z,3.19
2022-12-01T20:38:43.985Z,3.08
2022-12-01T20:41:48.235Z,3.22
2022-12-01T20:44:51.302Z,3.25
2022-12-01T20:47:54.586Z,2.95
2022-12-01T20:51:03.935Z,3.02
2022-12-01T20:57:34.360Z,2.95
2022-12-01T21:00:40.084Z,3.07
2022-12-01T21:03:45.050Z,3.02
2022-12-01T21:06:50.046Z,2.95
2022-12-01T21:09:52.904Z,2.88
2022-12-01T21:13:23.508Z,2.83
2022-12-01T21:16:28.772Z,2.65
2022-12-01T21:19:47.482Z,2.57
2022-12-01T21:22:51.564Z,2.61
2022-12-01T21:25:55.341Z,2.57
2022-12-01T21:29:00.124Z,2.59
2022-12-01T21:32:25.261Z,2.71
2022-12-01T21:35:30.557Z,2.67
2022-12-01T21:38:34.009Z,2.72
2022-12-01T21:41:37.921Z,2.71
2022-12-01T21:44:41.062Z,2.70
2022-12-01T21:47:43.990Z,2.67
2022-12-01T21:50:52.264Z,2.59
2022-12-01T21:53:56.641Z,2.47
2022-12-01T21:56:59.534Z,2.62
2022-12-01T22:00:25.999Z,2.51
2022-12-01T22:03:31.151Z,2.51
2022-12-01T22:06:43.257Z,2.62
2022-12-01T22:09:55.448Z,2.61
2022-12-01T22:12:58.038Z,2.60
2022-12-01T22:16:00.854Z,2.51
2022-12-01T22:19:15.866Z,2.44
2022-12-01T22:22:25.429Z,2.43
2022-12-01T22:25:29.271Z,2.50
2022-12-01T22:28:35.373Z,2.64
2022-12-01T22:31:39.612Z,2.63
2022-12-01T22:34:49.585Z,2.62
2022-12-01T22:37:54.104Z,2.67
2022-12-01T22:41:00.980Z,2.61
2022-12-01T22:44:03.897Z,2.63
2022-12-01T22:47:09.696Z,2.35
2022-12-01T22:50:27.299Z,2.30
2022-12-01T22:53:31.033Z,2.37
2022-12-01T22:56:40.637Z,2.44
2022-12-01T22:59:45.407Z,2.34
2022-12-01T23:02:49.856Z,2.29
2022-12-01T23:05:56.301Z,2.50
2022-12-01T23:08:58.856Z,2.20
2022-12-01T23:12:05.778Z,2.45
2022-12-01T23:15:32.705Z,2.27
2022-12-01T23:18:35.549Z,2.30
2022-12-01T23:21:38.370Z,2.25
2022-12-01T23:24:41.472Z,2.49
2022-12-01T23:27:46.723Z,2.37
2022-12-01T23:30:55.006Z,2.27
2022-12-01T23:33:57.694Z,2.31
2022-12-01T23:37:00.998Z,2.25
2022-12-01T23:40:34.076Z,2.26
2022-12-01T23:43:48.396Z,2.35
2022-12-01T23:46:55.108Z,2.48
2022-12-01T23:50:03.081Z,2.53
2022-12-01T23:53:05.943Z,2.39
2022-12-01T23:56:19.302Z,2.31
2022-12-01T23:59:23.104Z,2.23
